createdAt,value
2018-08-06T00:00:35.814Z,85.35
2018-08-06T00:03:05.289Z,85.55
2018-08-06T00:05:34.761Z,86.15
2018-08-06T00:08:04.178Z,85.92
2018-08-06T00:10:33.579Z,85.53
2018-08-06T00:13:03.159Z,85.52
2018-08-06T00:15:32.543Z,85.26
2018-08-06T00:18:02.129Z,85.23
2018-08-06T00:20:31.545Z,85.40
2018-08-06T00:23:01.030Z,85.00
2018-08-06T00:25:30.401Z,85.15
2018-08-06T00:27:59.830Z,85.04
2018-08-06T00:30:29.166Z,84.94
2018-08-06T00:32:59.442Z,84.52
2018-08-06T00:35:28.945Z,85.42
2018-08-06T00:37:58.425Z,85.26
2018-08-06T00:40:27.897Z,83.96
2018-08-06T00:42:57.342Z,84.27
2018-08-06T00:45:26.793Z,84.50
2018-08-06T00:47:56.194Z,85.10
2018-08-06T00:50:25.573Z,84.67
2018-08-06T00:52:54.952Z,85.37
2018-08-06T00:55:24.549Z,85.09
2018-08-06T00:57:53.949Z,85.29
2018-08-06T01:00:23.380Z,84.99
2018-08-06T01:02:52.829Z,84.96
2018-08-06T01:05:22.282Z,85.86
2018-08-06T01:07:51.790Z,85.82
2018-08-06T01:10:21.241Z,86.03
2018-08-06T01:12:50.392Z,84.88
2018-08-06T01:15:20.139Z,85.50
2018-08-06T01:17:49.499Z,86.70
2018-08-06T01:20:18.865Z,87.03
2018-08-06T01:22:48.341Z,87.37
2018-08-06T01:25:17.793Z,87.26
2018-08-06T01:27:47.261Z,86.67
2018-08-06T01:30:16.717Z,87.10
2018-08-06T01:32:46.177Z,87.57
2018-08-06T01:35:15.544Z,87.84
2018-08-06T01:37:45.131Z,87.37
2018-08-06T01:40:15.505Z,87.05
2018-08-06T01:42:45.034Z,87.89
2018-08-06T01:45:16.693Z,88.23
2018-08-06T01:47:46.405Z,87.86
2018-08-06T01:50:16.709Z,87.85
2018-08-06T01:52:46.089Z,86.76
2018-08-06T01:55:15.521Z,86.97
2018-08-06T01:57:44.870Z,87.04
2018-08-06T02:00:16.119Z,87.13
2018-08-06T02:02:45.615Z,86.07
2018-08-06T02:05:15.049Z,85.03
2018-08-06T02:07:44.482Z,85.61
2018-08-06T02:10:15.884Z,84.51
2018-08-06T02:12:46.103Z,83.49
2018-08-06T02:15:15.505Z,86.10
2018-08-06T02:17:45.033Z,84.16
2018-08-06T02:20:16.632Z,85.03
2018-08-06T02:22:47.185Z,84.48
2018-08-06T02:25:17.766Z,85.21
2018-08-06T02:27:47.191Z,85.83
2018-08-06T02:30:17.037Z,86.02
2018-08-06T02:32:46.414Z,87.94
2018-08-06T02:35:16.456Z,87.12
2018-08-06T02:37:46.542Z,86.51
2018-08-06T02:40:21.154Z,87.46
2018-08-06T02:42:50.677Z,86.95
2018-08-06T02:45:20.329Z,85.07
2018-08-06T02:47:49.901Z,84.97
2018-08-06T02:50:19.245Z,85.42
2018-08-06T02:52:48.744Z,85.81
2018-08-06T02:55:18.182Z,87.51
2018-08-06T02:57:47.685Z,87.28
2018-08-06T03:00:18.617Z,87.27
2018-08-06T03:02:48.462Z,88.31
2018-08-06T03:05:19.474Z,86.98
2018-08-06T03:07:49.011Z,86.53
2018-08-06T03:10:18.428Z,86.76
2018-08-06T03:12:48.184Z,86.91
2018-08-06T03:15:17.614Z,88.16
2018-08-06T03:17:47.002Z,88.24
2018-08-06T03:20:16.502Z,87.74
2018-08-06T03:22:45.928Z,86.86
2018-08-06T03:25:17.457Z,86.90
2018-08-06T03:27:46.906Z,86.00
2018-08-06T03:30:17.776Z,86.76
2018-08-06T03:32:48.519Z,86.72
2018-08-06T03:35:17.922Z,87.66
2018-08-06T03:37:47.408Z,88.79
2018-08-06T03:40:16.660Z,88.17
2018-08-06T03:42:46.042Z,89.23
2018-08-06T03:45:15.480Z,88.97
2018-08-06T03:47:44.909Z,89.99
2018-08-06T03:50:14.907Z,90.15
2018-08-06T03:52:44.600Z,89.87
2018-08-06T03:55:14.022Z,90.00
2018-08-06T03:57:43.386Z,90.01
2018-08-06T04:00:14.694Z,88.68
2018-08-06T04:02:44.495Z,87.10
2018-08-06T04:05:15.289Z,87.29
2018-08-06T04:07:44.749Z,86.55
2018-08-06T04:10:16.529Z,85.48
2018-08-06T04:12:46.420Z,85.94
2018-08-06T04:15:16.037Z,85.53
2018-08-06T04:17:45.449Z,85.86
2018-08-06T04:20:15.060Z,85.68
2018-08-06T04:22:44.572Z,87.43
2018-08-06T04:25:13.900Z,87.47
2018-08-06T04:27:43.442Z,88.10
2018-08-06T04:30:14.197Z,88.36
2018-08-06T04:32:44.964Z,89.04
2018-08-06T04:35:14.569Z,89.21
2018-08-06T04:37:44.827Z,89.87
2018-08-06T04:40:14.498Z,89.65
2018-08-06T04:42:44.222Z,90.32
2018-08-06T04:45:13.646Z,90.88
2018-08-06T04:47:43.234Z,91.45
2018-08-06T04:50:14.714Z,91.96
2018-08-06T04:52:45.393Z,92.20
2018-08-06T04:55:15.675Z,92.07
2018-08-06T04:57:45.121Z,91.89
2018-08-06T05:00:15.813Z,92.41
2018-08-06T05:02:45.520Z,92.00
2018-08-06T05:05:14.949Z,91.99
2018-08-06T05:07:44.380Z,92.07
2018-08-06T05:10:13.752Z,91.47
2018-08-06T05:12:43.138Z,91.68
2018-08-06T05:15:12.622Z,91.57
2018-08-06T05:17:42.001Z,91.31
2018-08-06T05:20:11.486Z,91.06
2018-08-06T05:22:40.886Z,90.79
2018-08-06T05:25:10.273Z,90.14
2018-08-06T05:27:39.728Z,89.32
2018-08-06T05:30:11.750Z,89.14
2018-08-06T05:32:41.194Z,88.83
2018-08-06T05:35:10.685Z,89.73
2018-08-06T05:37:40.077Z,89.73
2018-08-06T05:40:09.937Z,89.61
2018-08-06T05:42:39.389Z,89.74
2018-08-06T05:45:10.315Z,88.73
2018-08-06T05:47:39.718Z,88.60
2018-08-06T05:50:12.436Z,87.99
2018-08-06T05:52:41.768Z,88.57
2018-08-06T05:55:11.584Z,88.44
2018-08-06T05:57:46.590Z,88.27
2018-08-06T06:00:18.757Z,87.93
2018-08-06T06:02:48.367Z,87.26
2018-08-06T06:05:17.881Z,87.51
2018-08-06T06:07:47.084Z,87.05
2018-08-06T06:10:16.436Z,87.01
2018-08-06T06:12:45.893Z,86.04
2018-08-06T06:15:17.133Z,86.07
2018-08-06T06:17:46.488Z,85.88
2018-08-06T06:20:16.177Z,85.21
2018-08-06T06:22:45.883Z,84.54
2018-08-06T06:25:15.250Z,83.96
2018-08-06T06:27:45.332Z,83.87
2018-08-06T06:30:16.702Z,83.36
2018-08-06T06:32:46.378Z,82.48
2018-08-06T06:35:15.745Z,82.18
2018-08-06T06:37:45.465Z,81.54
2018-08-06T06:40:15.297Z,81.78
2018-08-06T06:42:44.897Z,81.75
2018-08-06T06:45:14.266Z,81.35
2018-08-06T06:47:43.814Z,80.92
2018-08-06T06:50:13.190Z,80.13
2018-08-06T06:52:42.631Z,79.69
2018-08-06T06:55:13.585Z,79.17
2018-08-06T06:57:43.619Z,77.39
2018-08-06T07:00:13.006Z,77.32
2018-08-06T07:02:43.025Z,75.76
2018-08-06T07:05:12.573Z,76.08
2018-08-06T07:07:41.973Z,76.35
2018-08-06T07:10:12.907Z,75.81
2018-08-06T07:12:42.529Z,75.40
2018-08-06T07:15:15.829Z,74.94
2018-08-06T07:17:47.577Z,75.23
2018-08-06T07:20:19.515Z,75.38
2018-08-06T07:22:48.859Z,73.61
2018-08-06T07:25:18.213Z,73.14
2018-08-06T07:27:47.681Z,72.80
2018-08-06T07:30:17.150Z,72.23
2018-08-06T07:32:46.548Z,72.50
2018-08-06T07:35:16.120Z,72.55
2018-08-06T07:37:45.593Z,71.92
2018-08-06T07:40:15.845Z,70.33
2018-08-06T07:42:45.373Z,71.37
2018-08-06T07:45:17.242Z,70.71
2018-08-06T07:47:47.506Z,70.20
2018-08-06T07:50:17.977Z,68.55
2018-08-06T07:52:47.872Z,68.34
2018-08-06T07:55:17.549Z,68.30
2018-08-06T07:57:47.086Z,68.38
2018-08-06T08:00:18.630Z,68.18
2018-08-06T08:02:48.671Z,67.40
2018-08-06T08:05:19.154Z,67.23
2018-08-06T08:07:49.403Z,66.15
2018-08-06T08:10:20.496Z,67.18
2018-08-06T08:12:49.948Z,65.40
2018-08-06T08:15:22.757Z,65.06
2018-08-06T08:17:52.125Z,66.24
2018-08-06T08:20:21.736Z,65.64
2018-08-06T08:22:51.072Z,65.20
2018-08-06T08:25:22.085Z,64.10
2018-08-06T08:27:51.805Z,63.94
2018-08-06T08:30:21.506Z,65.59
2018-08-06T08:32:51.137Z,63.11
2018-08-06T08:35:20.638Z,63.12
2018-08-06T08:37:50.102Z,62.32
2018-08-06T08:40:20.226Z,59.73
2018-08-06T08:42:49.754Z,60.65
2018-08-06T08:45:19.470Z,60.39
2018-08-06T08:47:48.790Z,59.42
2018-08-06T08:50:20.090Z,59.57
2018-08-06T08:52:49.534Z,59.50
2018-08-06T08:55:20.269Z,59.04
2018-08-06T08:57:49.659Z,58.59
2018-08-06T09:00:22.790Z,57.09
2018-08-06T09:02:52.981Z,55.61
2018-08-06T09:05:22.582Z,57.10
2018-08-06T09:07:52.212Z,56.49
2018-08-06T09:10:21.968Z,55.96
2018-08-06T09:12:51.292Z,54.80
2018-08-06T09:15:25.381Z,55.17
2018-08-06T09:17:54.812Z,54.34
2018-08-06T09:20:25.646Z,53.62
2018-08-06T09:22:55.129Z,53.81
2018-08-06T09:25:24.565Z,53.17
2018-08-06T09:27:53.954Z,53.75
2018-08-06T09:30:24.431Z,53.37
2018-08-06T09:32:58.483Z,51.87
2018-08-06T09:35:27.923Z,52.53
2018-08-06T09:37:57.277Z,52.24
2018-08-06T09:40:26.724Z,50.91
2018-08-06T09:42:56.256Z,50.60
2018-08-06T09:45:25.710Z,49.35
2018-08-06T09:47:55.497Z,50.06
2018-08-06T09:50:24.981Z,51.51
2018-08-06T09:52:55.025Z,49.95
2018-08-06T09:55:26.933Z,51.19
2018-08-06T09:57:56.442Z,50.88
2018-08-06T10:00:31.206Z,49.33
2018-08-06T10:03:01.841Z,47.74
2018-08-06T10:05:31.253Z,46.44
2018-08-06T10:08:00.778Z,46.83
2018-08-06T10:10:30.216Z,46.65
2018-08-06T10:12:59.610Z,46.85
2018-08-06T10:15:29.041Z,47.02
2018-08-06T10:17:58.405Z,47.43
2018-08-06T10:20:27.913Z,48.03
2018-08-06T10:22:57.353Z,48.32
2018-08-06T10:25:27.146Z,46.41
2018-08-06T10:27:56.623Z,45.49
2018-08-06T10:30:26.146Z,46.63
2018-08-06T10:32:55.518Z,46.32
2018-08-06T10:35:24.998Z,43.54
2018-08-06T10:37:54.618Z,44.74
2018-08-06T10:40:24.811Z,45.75
2018-08-06T10:42:54.541Z,45.37
2018-08-06T10:45:26.982Z,45.92
2018-08-06T10:47:58.231Z,45.32
2018-08-06T10:50:28.521Z,44.33
2018-08-06T10:52:58.158Z,44.47
2018-08-06T10:55:27.591Z,45.80
2018-08-06T10:57:58.470Z,44.68
2018-08-06T11:00:28.187Z,43.75
2018-08-06T11:02:57.601Z,42.81
2018-08-06T11:05:27.009Z,44.44
2018-08-06T11:07:56.436Z,44.43
2018-08-06T11:10:25.955Z,45.05
2018-08-06T11:12:58.007Z,46.32
2018-08-06T11:15:27.901Z,44.83
2018-08-06T11:17:57.344Z,43.46
2018-08-06T11:20:26.870Z,43.47
2018-08-06T11:22:56.345Z,43.33
2018-08-06T11:25:25.858Z,43.65
2018-08-06T11:27:55.338Z,41.52
2018-08-06T11:30:24.967Z,41.68
2018-08-06T11:32:55.209Z,41.95
2018-08-06T11:35:24.669Z,41.62
2018-08-06T11:37:53.807Z,39.58
2018-08-06T11:40:23.300Z,38.33
2018-08-06T11:42:53.122Z,39.06
2018-08-06T11:45:23.613Z,38.92
2018-08-06T11:47:54.745Z,38.59
2018-08-06T11:50:24.287Z,38.76
2018-08-06T11:52:55.053Z,39.09
2018-08-06T11:55:24.202Z,38.16
2018-08-06T11:57:53.758Z,37.84
2018-08-06T12:00:25.087Z,38.29
2018-08-06T12:02:54.520Z,38.03
2018-08-06T12:05:24.247Z,37.54
2018-08-06T12:07:53.837Z,37.82
2018-08-06T12:10:23.663Z,37.74
2018-08-06T12:12:53.160Z,37.05
2018-08-06T12:15:22.736Z,36.44
2018-08-06T12:17:52.213Z,36.05
2018-08-06T12:20:22.018Z,36.07
2018-08-06T12:22:53.573Z,35.32
2018-08-06T12:25:23.031Z,35.26
2018-08-06T12:27:52.380Z,34.43
2018-08-06T12:30:23.770Z,33.48
2018-08-06T12:32:54.214Z,33.20
2018-08-06T12:35:24.172Z,30.70
2018-08-06T12:37:53.629Z,27.98
2018-08-06T12:40:23.677Z,26.27
2018-08-06T12:42:55.754Z,23.13
2018-08-06T12:45:25.534Z,22.77
2018-08-06T12:47:54.989Z,21.70
2018-08-06T12:50:24.430Z,21.15
2018-08-06T12:52:53.862Z,21.09
2018-08-06T12:55:23.365Z,20.59
2018-08-06T12:57:52.946Z,18.52
2018-08-06T13:00:25.558Z,17.44
2018-08-06T13:02:55.337Z,18.53
2018-08-06T13:05:25.595Z,17.33
2018-08-06T13:07:54.967Z,16.81
2018-08-06T13:10:24.350Z,18.51
2018-08-06T13:12:54.929Z,18.07
2018-08-06T13:15:24.585Z,18.16
2018-08-06T13:17:54.038Z,16.79
2018-08-06T13:20:23.417Z,16.53
2018-08-06T13:22:52.821Z,16.64
2018-08-06T13:25:22.468Z,16.17
2018-08-06T13:27:52.497Z,16.02
2018-08-06T13:30:22.271Z,16.70
2018-08-06T13:32:51.764Z,16.04
2018-08-06T13:35:21.108Z,16.18
2018-08-06T13:37:50.799Z,15.64
2018-08-06T13:40:20.185Z,15.13
2018-08-06T13:42:49.660Z,15.87
2018-08-06T13:45:19.662Z,16.16
2018-08-06T13:47:49.090Z,16.67
2018-08-06T13:50:18.498Z,15.74
2018-08-06T13:52:47.861Z,16.81
2018-08-06T13:55:18.504Z,15.87
2018-08-06T13:57:49.732Z,16.21
2018-08-06T14:00:21.470Z,16.16
2018-08-06T14:02:51.703Z,15.10
2018-08-06T14:05:21.301Z,15.98
2018-08-06T14:07:52.050Z,15.99
2018-08-06T14:10:21.212Z,15.25
2018-08-06T14:12:50.616Z,15.09
2018-08-06T14:15:20.066Z,14.50
2018-08-06T14:17:49.522Z,15.98
2018-08-06T14:20:19.394Z,15.61
2018-08-06T14:22:48.885Z,14.69
2018-08-06T14:25:18.300Z,14.30
2018-08-06T14:27:47.905Z,15.02
2018-08-06T14:30:17.893Z,14.79
2018-08-06T14:32:47.387Z,15.96
2018-08-06T14:35:17.372Z,15.80
2018-08-06T14:37:47.221Z,16.14
2018-08-06T14:40:18.242Z,15.39
2018-08-06T14:42:48.033Z,15.53
2018-08-06T14:45:17.514Z,15.42
2018-08-06T14:47:46.696Z,15.29
2018-08-06T14:50:16.481Z,14.63
2018-08-06T14:52:45.993Z,14.75
2018-08-06T14:55:15.381Z,14.26
2018-08-06T14:57:45.051Z,15.66
2018-08-06T15:00:18.913Z,15.84
2018-08-06T15:02:48.840Z,14.36
2018-08-06T15:05:18.210Z,14.83
2018-08-06T15:07:48.227Z,14.89
2018-08-06T15:10:17.700Z,14.77
2018-08-06T15:12:47.195Z,15.20
2018-08-06T15:15:17.815Z,15.12
2018-08-06T15:17:47.573Z,14.24
2018-08-06T15:20:18.494Z,13.85
2018-08-06T15:22:49.246Z,14.43
2018-08-06T15:25:23.111Z,15.02
2018-08-06T15:27:53.558Z,15.58
2018-08-06T15:30:23.777Z,17.17
2018-08-06T15:32:53.290Z,17.98
2018-08-06T15:35:23.928Z,18.56
2018-08-06T15:37:53.508Z,18.93
2018-08-06T15:40:23.797Z,19.20
2018-08-06T15:42:53.435Z,18.69
2018-08-06T15:45:23.060Z,16.36
2018-08-06T15:47:52.562Z,16.24
2018-08-06T15:50:22.717Z,16.10
2018-08-06T15:52:52.197Z,16.46
2018-08-06T15:55:22.330Z,15.08
2018-08-06T15:57:51.841Z,15.98
2018-08-06T16:00:25.453Z,15.37
2018-08-06T16:02:57.703Z,14.48
2018-08-06T16:05:27.141Z,14.06
2018-08-06T16:07:57.253Z,14.04
2018-08-06T16:10:27.534Z,14.39
2018-08-06T16:12:57.373Z,14.80
2018-08-06T16:15:27.782Z,14.73
2018-08-06T16:17:57.728Z,15.40
2018-08-06T16:20:27.349Z,15.84
2018-08-06T16:22:58.198Z,16.64
2018-08-06T16:25:27.681Z,18.27
2018-08-06T16:27:57.169Z,19.57
2018-08-06T16:30:27.290Z,21.14
2018-08-06T16:32:57.851Z,21.63
2018-08-06T16:35:29.002Z,22.25
2018-08-06T16:37:59.074Z,22.72
2018-08-06T16:40:28.520Z,22.55
2018-08-06T16:42:57.970Z,23.21
2018-08-06T16:45:27.545Z,21.50
2018-08-06T16:47:56.994Z,20.74
2018-08-06T16:50:26.482Z,21.70
2018-08-06T16:52:56.538Z,22.32
2018-08-06T16:55:25.759Z,22.32
2018-08-06T16:57:55.362Z,23.53
2018-08-06T17:00:24.942Z,25.11
2018-08-06T17:02:54.726Z,24.65
2018-08-06T17:05:23.906Z,23.89
2018-08-06T17:07:53.962Z,25.11
2018-08-06T17:10:24.306Z,25.13
2018-08-06T17:12:55.031Z,25.11
2018-08-06T17:15:25.249Z,23.94
2018-08-06T17:17:56.059Z,25.42
2018-08-06T17:20:26.628Z,25.14
2018-08-06T17:22:55.880Z,25.83
2018-08-06T17:25:25.497Z,25.89
2018-08-06T17:27:55.065Z,24.27
2018-08-06T17:30:24.222Z,24.63
2018-08-06T17:32:54.693Z,23.50
2018-08-06T17:35:24.796Z,25.33
2018-08-06T17:37:54.419Z,24.42
2018-08-06T17:40:24.980Z,26.19
2018-08-06T17:42:54.542Z,26.48
2018-08-06T17:45:24.509Z,26.82
2018-08-06T17:47:54.004Z,28.36
2018-08-06T17:50:24.563Z,28.00
2018-08-06T17:52:54.841Z,28.60
2018-08-06T17:55:24.594Z,27.87
2018-08-06T17:57:54.407Z,29.57
2018-08-06T18:00:23.604Z,30.61
2018-08-06T18:02:52.908Z,30.52
2018-08-06T18:05:22.459Z,30.50
2018-08-06T18:07:51.797Z,31.33
2018-08-06T18:10:21.950Z,32.65
2018-08-06T18:12:51.702Z,32.25
2018-08-06T18:15:21.110Z,32.87
2018-08-06T18:17:50.530Z,35.26
2018-08-06T18:20:21.164Z,36.21
2018-08-06T18:22:52.553Z,36.09
2018-08-06T18:25:22.694Z,37.33
2018-08-06T18:27:52.598Z,37.10
2018-08-06T18:30:23.041Z,37.07
2018-08-06T18:32:52.470Z,37.49
2018-08-06T18:35:21.958Z,38.49
2018-08-06T18:37:52.124Z,38.66
2018-08-06T18:40:22.957Z,39.26
2018-08-06T18:42:52.394Z,40.79
2018-08-06T18:45:23.758Z,41.00
2018-08-06T18:47:53.449Z,41.41
2018-08-06T18:50:23.424Z,40.91
2018-08-06T18:52:52.870Z,41.27
2018-08-06T18:55:22.335Z,43.44
2018-08-06T18:57:51.818Z,40.96
2018-08-06T19:00:24.159Z,41.95
2018-08-06T19:02:55.018Z,41.07
2018-08-06T19:05:25.748Z,41.72
2018-08-06T19:07:55.350Z,41.12
2018-08-06T19:10:24.902Z,43.51
2018-08-06T19:12:59.595Z,42.82
2018-08-06T19:15:29.639Z,38.49
2018-08-06T19:18:04.333Z,40.28
2018-08-06T19:20:34.655Z,39.72
2018-08-06T19:23:04.172Z,42.07
2018-08-06T19:25:34.042Z,41.81
2018-08-06T19:28:04.527Z,41.53
2018-08-06T19:30:39.152Z,43.48
2018-08-06T19:33:09.626Z,43.80
2018-08-06T19:35:39.375Z,42.75
2018-08-06T19:38:08.925Z,43.92
2018-08-06T19:40:38.430Z,43.93
2018-08-06T19:43:13.131Z,44.20
2018-08-06T19:45:42.557Z,44.15
2018-08-06T19:48:11.931Z,44.60
2018-08-06T19:50:43.034Z,44.93
2018-08-06T19:53:12.474Z,44.63
2018-08-06T19:55:47.794Z,44.26
2018-08-06T19:58:17.321Z,44.00
2018-08-06T20:00:46.729Z,43.99
2018-08-06T20:03:16.198Z,43.88
2018-08-06T20:05:45.834Z,43.71
2018-08-06T20:08:15.291Z,43.93
2018-08-06T20:10:44.776Z,44.11
2018-08-06T20:13:14.134Z,43.97
2018-08-06T20:15:43.542Z,43.61
2018-08-06T20:18:13.028Z,44.65
2018-08-06T20:20:42.605Z,44.37
2018-08-06T20:23:12.150Z,45.06
2018-08-06T20:25:41.545Z,43.28
2018-08-06T20:28:11.010Z,44.14
2018-08-06T20:30:40.502Z,44.56
2018-08-06T20:33:10.930Z,44.60
2018-08-06T20:35:40.337Z,44.59
2018-08-06T20:38:09.753Z,44.28
2018-08-06T20:40:39.274Z,44.24
2018-08-06T20:43:08.767Z,44.79
2018-08-06T20:45:38.111Z,46.23
2018-08-06T20:48:07.645Z,45.71
2018-08-06T20:50:37.231Z,46.05
2018-08-06T20:53:07.189Z,46.42
2018-08-06T20:55:36.566Z,45.89
2018-08-06T20:58:06.756Z,45.94
2018-08-06T21:00:36.240Z,46.49
2018-08-06T21:03:05.734Z,46.51
2018-08-06T21:05:35.160Z,45.99
2018-08-06T21:08:04.805Z,46.10
2018-08-06T21:10:34.278Z,47.03
2018-08-06T21:13:03.526Z,46.62
2018-08-06T21:15:32.962Z,47.51
2018-08-06T21:18:02.497Z,47.98
2018-08-06T21:20:32.013Z,47.48
2018-08-06T21:23:01.528Z,47.44
2018-08-06T21:25:30.998Z,48.40
2018-08-06T21:28:00.451Z,48.40
2018-08-06T21:30:29.869Z,48.64
2018-08-06T21:32:59.308Z,48.92
2018-08-06T21:35:29.370Z,48.78
2018-08-06T21:37:58.777Z,49.81
2018-08-06T21:40:28.207Z,50.33
2018-08-06T21:42:57.709Z,50.52
2018-08-06T21:45:27.194Z,50.96
2018-08-06T21:47:56.649Z,50.99
2018-08-06T21:50:26.132Z,51.24
2018-08-06T21:52:55.662Z,50.89
2018-08-06T21:55:25.050Z,51.25
2018-08-06T21:57:54.596Z,51.69
2018-08-06T22:00:35.295Z,52.24
2018-08-06T22:03:07.167Z,51.94
2018-08-06T22:05:36.551Z,52.59
2018-08-06T22:08:06.021Z,52.68
2018-08-06T22:10:35.453Z,53.78
2018-08-06T22:13:05.345Z,54.12
2018-08-06T22:15:34.735Z,54.07
2018-08-06T22:18:04.294Z,53.70
2018-08-06T22:20:33.718Z,54.57
2018-08-06T22:23:03.165Z,55.59
2018-08-06T22:25:32.657Z,55.53
2018-08-06T22:28:02.089Z,55.74
2018-08-06T22:30:31.325Z,55.34
2018-08-06T22:33:00.697Z,55.63
2018-08-06T22:35:30.074Z,55.94
2018-08-06T22:37:59.555Z,56.56
2018-08-06T22:40:29.186Z,56.15
2018-08-06T22:42:58.605Z,56.43
2018-08-06T22:45:28.121Z,57.63
2018-08-06T22:47:57.350Z,57.82
2018-08-06T22:50:26.818Z,57.90
2018-08-06T22:52:56.208Z,59.18
2018-08-06T22:55:25.783Z,60.57
2018-08-06T22:57:55.231Z,61.27
2018-08-06T23:00:24.597Z,61.58
2018-08-06T23:02:54.041Z,62.88
2018-08-06T23:05:23.389Z,62.81
2018-08-06T23:07:52.726Z,63.05
2018-08-06T23:10:22.250Z,63.01
2018-08-06T23:12:51.690Z,62.83
2018-08-06T23:15:21.082Z,62.58
2018-08-06T23:17:50.486Z,62.59
2018-08-06T23:20:19.869Z,62.72
2018-08-06T23:22:49.238Z,63.33
2018-08-06T23:25:20.960Z,63.76
2018-08-06T23:27:50.392Z,64.30
2018-08-06T23:30:19.861Z,63.33
2018-08-06T23:32:49.213Z,64.34
2018-08-06T23:35:18.558Z,64.33
2018-08-06T23:37:48.110Z,63.59
2018-08-06T23:40:17.553Z,65.19
2018-08-06T23:42:46.920Z,65.63
2018-08-06T23:45:16.730Z,67.03
2018-08-06T23:47:46.147Z,68.04
2018-08-06T23:50:15.960Z,68.48
2018-08-06T23:52:46.337Z,68.83
2018-08-06T23:55:18.829Z,69.40
2018-08-06T23:57:49.041Z,70.12
